createdAt,value
2023-04-23T05:03:57.122Z,94.10
2023-04-23T05:09:00.507Z,94.30
2023-04-23T05:14:04.623Z,94.00
2023-04-23T05:19:09.792Z,93.80
2023-04-23T05:24:13.184Z,93.90
2023-04-23T05:29:19.361Z,94.10
2023-04-23T05:34:24.132Z,94.20
2023-04-23T05:39:27.435Z,94.50
2023-04-23T05:44:30.763Z,95.10
2023-04-23T05:49:35.496Z,95.50
2023-04-23T05:54:38.960Z,95.10
2023-04-23T05:59:42.804Z,94.70
2023-04-23T06:04:48.082Z,94.40
2023-04-23T06:09:51.900Z,94.20
2023-04-23T06:14:55.432Z,94.40
2023-04-23T06:20:00.191Z,94.70
2023-04-23T06:25:03.945Z,95.00
2023-04-23T06:30:08.059Z,95.20
2023-04-23T06:35:13.777Z,94.80
2023-04-23T06:40:17.191Z,95.00
2023-04-23T06:45:21.171Z,95.50
2023-04-23T06:50:25.936Z,95.70
2023-04-23T06:55:29.342Z,96.10
2023-04-23T07:00:32.789Z,96.50
2023-04-23T07:05:38.924Z,96.50
2023-04-23T07:10:42.256Z,96.40
2023-04-23T07:15:46.549Z,96.20
2023-04-23T07:20:51.380Z,95.90
2023-04-23T07:25:54.724Z,96.70
2023-04-23T07:30:58.212Z,97.50
2023-04-23T07:36:03.031Z,96.90
2023-04-23T07:41:06.485Z,96.90
2023-04-23T07:46:10.041Z,96.60
2023-04-23T07:51:14.852Z,96.30
2023-04-23T07:56:18.411Z,95.40
2023-04-23T08:01:21.911Z,95.00
2023-04-23T08:06:27.065Z,95.20
2023-04-23T08:11:30.442Z,95.10
2023-04-23T08:16:35.270Z,95.50
2023-04-23T08:21:41.536Z,94.90
2023-04-23T08:26:44.932Z,94.70
2023-04-23T08:31:48.362Z,94.80
2023-04-23T08:36:53.061Z,94.50
2023-04-23T08:41:56.837Z,93.80
2023-04-23T08:47:02.238Z,92.90
2023-04-23T08:52:11.522Z,92.40
2023-04-23T08:57:15.156Z,92.10
2023-04-23T09:02:19.032Z,90.40
2023-04-23T09:07:24.011Z,87.90
2023-04-23T09:12:27.362Z,87.20
2023-04-23T09:17:31.279Z,88.10
2023-04-23T09:22:47.416Z,88.20
2023-04-23T09:27:51.966Z,88.40
2023-04-23T09:32:55.550Z,87.20
2023-04-23T09:38:05.108Z,87.50
2023-04-23T09:43:11.338Z,87.90
2023-04-23T09:48:14.792Z,87.50
2023-04-23T09:53:20.780Z,87.70
2023-04-23T09:58:28.852Z,89.30
2023-04-23T10:03:32.561Z,88.60
2023-04-23T10:08:37.538Z,88.30
2023-04-23T10:13:41.017Z,88.20
2023-04-23T10:18:44.335Z,90.10
2023-04-23T10:23:51.166Z,89.40
2023-04-23T10:28:55.898Z,86.40
2023-04-23T10:34:00.061Z,80.20
2023-04-23T10:39:15.852Z,79.20
2023-04-23T10:44:44.915Z,80.60
2023-04-23T10:49:48.040Z,81.30
2023-04-23T10:54:58.191Z,79.70
2023-04-23T11:00:04.573Z,77.80
2023-04-23T11:05:09.956Z,74.40
2023-04-23T11:10:15.503Z,73.30
2023-04-23T11:15:20.113Z,74.80
2023-04-23T11:20:24.954Z,76.70
2023-04-23T11:25:30.503Z,77.50
2023-04-23T11:30:33.976Z,77.70
2023-04-23T11:35:40.624Z,78.20
2023-04-23T11:40:48.584Z,79.40
2023-04-23T11:45:52.131Z,82.20
2023-04-23T11:50:55.660Z,85.20
2023-04-23T11:56:00.392Z,88.90
2023-04-23T12:01:03.898Z,90.00
2023-04-23T12:06:07.800Z,88.20
2023-04-23T12:11:12.848Z,82.50
2023-04-23T12:16:16.313Z,78.70
2023-04-23T12:21:19.660Z,77.40
2023-04-23T12:26:26.077Z,77.20
2023-04-23T12:31:30.201Z,77.40
2023-04-23T12:36:34.204Z,79.30
2023-04-23T12:41:38.893Z,82.30
2023-04-23T12:46:42.307Z,86.70
2023-04-23T12:56:50.870Z,89.10
2023-04-23T13:01:54.189Z,86.00
2023-04-23T13:06:57.585Z,86.50
2023-04-23T13:12:02.581Z,84.50
2023-04-23T13:17:06.430Z,84.30
2023-04-23T13:22:09.729Z,80.40
2023-04-23T13:27:14.474Z,77.90
2023-04-23T13:32:18.375Z,75.20
2023-04-23T13:37:23.993Z,74.70
2023-04-23T13:42:28.744Z,74.50
2023-04-23T13:47:33.427Z,75.50
2023-04-23T13:52:37.464Z,75.10
2023-04-23T13:57:42.160Z,75.30
2023-04-23T14:02:45.664Z,74.80
2023-04-23T14:07:49.021Z,74.60
2023-04-23T14:12:54.379Z,75.50
2023-04-23T14:17:58.018Z,76.20
2023-04-23T14:23:03.633Z,74.70
2023-04-23T14:28:24.678Z,72.90
2023-04-23T14:33:28.136Z,72.20
2023-04-23T14:38:31.435Z,73.30
2023-04-23T14:43:37.875Z,74.80
2023-04-23T14:48:41.224Z,75.70
2023-04-23T14:53:44.566Z,75.30
2023-04-23T14:58:49.233Z,75.60
2023-04-23T15:03:53.572Z,75.60
2023-04-23T15:08:57.008Z,76.10
2023-04-23T15:14:07.551Z,76.60
2023-04-23T15:19:11.429Z,76.10
2023-04-23T15:24:14.927Z,75.90
2023-04-23T15:29:20.200Z,74.80
2023-04-23T15:34:23.528Z,73.60
2023-04-23T15:39:26.841Z,73.20
2023-04-23T15:44:31.551Z,73.10
2023-04-23T15:49:34.915Z,72.50
2023-04-23T15:54:38.398Z,72.30
2023-04-23T15:59:43.330Z,72.80
2023-04-23T16:04:47.103Z,72.70
2023-04-23T16:09:51.047Z,72.70
2023-04-23T16:14:55.744Z,72.20
2023-04-23T16:19:59.365Z,72.30
2023-04-23T16:25:02.751Z,72.20
2023-04-23T16:30:08.318Z,72.00
2023-04-23T16:35:11.610Z,71.10
2023-04-23T16:40:15.719Z,70.20
2023-04-23T16:45:23.146Z,70.00
2023-04-23T16:50:26.589Z,70.60
2023-04-23T16:55:30.348Z,70.50
2023-04-23T17:00:35.007Z,70.20
2023-04-23T17:11:54.809Z,70.00
2023-04-23T17:16:59.577Z,70.20
2023-04-23T17:22:03.416Z,69.70
2023-04-23T17:27:06.815Z,70.40
2023-04-23T17:32:11.723Z,70.10
2023-04-23T17:37:15.031Z,69.90
2023-04-23T17:42:18.361Z,70.00
2023-04-23T17:47:23.236Z,70.00
2023-04-23T17:52:27.104Z,70.60
2023-04-23T17:57:30.873Z,70.60
2023-04-23T18:02:40.181Z,70.30
2023-04-23T18:07:45.730Z,70.80
2023-04-23T18:12:49.083Z,70.70
2023-04-23T18:17:55.822Z,70.60
2023-04-23T18:22:59.450Z,70.60
2023-04-23T18:28:03.221Z,70.60
2023-04-23T18:33:12.024Z,70.60
2023-04-23T18:38:24.592Z,71.10
2023-04-23T18:43:28.583Z,70.50
2023-04-23T18:48:41.436Z,70.70
2023-04-23T18:53:44.821Z,70.90
2023-04-23T18:58:48.134Z,70.60
2023-04-23T19:03:52.941Z,70.90
2023-04-23T19:08:56.282Z,71.20
2023-04-23T19:13:59.589Z,72.00
2023-04-23T19:19:04.300Z,72.20
2023-04-23T19:24:07.744Z,72.30
2023-04-23T19:29:11.051Z,72.20
2023-04-23T19:34:16.504Z,72.40
2023-04-23T19:39:22.695Z,72.60
2023-04-23T19:44:26.156Z,72.60
2023-04-23T19:49:30.913Z,72.50
2023-04-23T19:54:34.200Z,72.40
2023-04-23T19:59:37.540Z,72.40
2023-04-23T20:04:42.379Z,72.70
2023-04-23T20:09:45.881Z,72.60
2023-04-23T20:14:49.218Z,73.20
2023-04-23T20:19:53.929Z,72.70
2023-04-23T20:24:57.863Z,73.10
2023-04-23T20:30:01.162Z,73.30
2023-04-23T20:35:06.658Z,72.60
2023-04-23T20:40:11.417Z,72.50
2023-04-23T20:45:14.708Z,72.90
2023-04-23T20:50:19.492Z,72.90
2023-04-23T20:55:22.841Z,72.90
2023-04-23T21:00:26.137Z,72.80
2023-04-23T21:05:31.358Z,72.80
2023-04-23T21:10:34.709Z,72.70
2023-04-23T21:15:38.532Z,72.20
2023-04-23T21:20:43.770Z,72.10
2023-04-23T21:25:47.056Z,72.40
2023-04-23T21:30:51.384Z,72.50
2023-04-23T21:35:56.244Z,72.50
2023-04-23T21:40:59.570Z,72.40
2023-04-23T21:46:03.013Z,72.30
2023-04-23T21:51:07.879Z,72.10
2023-04-23T21:56:11.224Z,71.80
2023-04-23T22:01:14.749Z,71.70
2023-04-23T22:06:20.000Z,71.60
2023-04-23T22:11:23.371Z,71.40
2023-04-23T22:16:28.543Z,71.50
2023-04-23T22:21:33.985Z,71.60
2023-04-23T22:26:37.462Z,71.70
